Time;durP1;ratioP1;P1;durP2;ratioP2;P2;SDS_P1;SDS_P2;PMS_P1;PMS_P2;Temp;Humidity;BMP_temperature;BMP_pressure;BME280_temperature;BME280_humidity;BME280_pressure;Samples;Min_cycle;Max_cycle;Signal;HPM_P1;HPM_P2
2022/11/07 00:01:14;;;;;;;12.48;8.38;;;7.60;99.90;;;;;;5052732;28;20056;-66
2022/11/07 00:04:18;;;;;;;17.02;9.88;;;7.60;99.90;;;;;;5052452;28;20388;-66
2022/11/07 00:07:22;;;;;;;14.80;9.40;;;7.60;99.90;;;;;;5052621;28;20056;-66
2022/11/07 00:10:27;;;;;;;15.25;9.18;;;7.60;99.90;;;;;;5052563;28;20048;-66
2022/11/07 00:13:31;;;;;;;10.18;6.85;;;7.50;99.90;;;;;;5052206;28;20548;-67
2022/11/07 00:16:35;;;;;;;14.57;8.05;;;7.30;99.90;;;;;;5052775;28;20492;-66
2022/11/07 00:19:39;;;;;;;12.43;7.65;;;7.20;99.90;;;;;;5052208;28;20052;-66
2022/11/07 00:22:42;;;;;;;14.95;7.18;;;7.10;99.90;;;;;;5052625;28;20048;-66
2022/11/07 00:25:46;;;;;;;10.45;5.85;;;7.00;99.90;;;;;;5052497;28;20044;-66
2022/11/07 00:28:51;;;;;;;10.73;6.28;;;6.90;99.90;;;;;;5052551;28;20043;-66
2022/11/07 00:31:54;;;;;;;13.52;7.53;;;6.90;99.90;;;;;;5052715;28;20043;-66
2022/11/07 00:34:59;;;;;;;11.20;7.40;;;6.80;99.90;;;;;;5052166;28;20487;-66
2022/11/07 00:38:03;;;;;;;15.60;8.43;;;6.70;99.90;;;;;;5052067;28;20040;-67
2022/11/07 00:41:08;;;;;;;13.60;8.38;;;6.70;99.90;;;;;;5039753;28;20051;-67
2022/11/07 00:44:11;;;;;;;18.73;8.88;;;6.70;99.90;;;;;;5051899;28;20036;-67
2022/11/07 00:47:15;;;;;;;15.73;8.68;;;6.70;99.90;;;;;;5052182;28;20036;-67
2022/11/07 00:50:19;;;;;;;16.80;8.70;;;6.70;99.90;;;;;;5051974;28;20055;-66
2022/11/07 00:53:23;;;;;;;16.90;8.88;;;6.70;99.90;;;;;;5051635;28;20048;-67
2022/11/07 00:56:27;;;;;;;15.18;8.68;;;6.80;99.90;;;;;;5051670;28;20044;-66
2022/11/07 00:59:31;;;;;;;17.30;9.20;;;6.80;99.90;;;;;;5051672;28;20048;-66
2022/11/07 01:02:35;;;;;;;17.52;10.30;;;6.90;99.90;;;;;;5051676;28;20499;-66
2022/11/07 01:05:39;;;;;;;14.93;9.73;;;6.90;99.90;;;;;;5051590;28;20388;-66
2022/11/07 01:08:43;;;;;;;18.90;10.25;;;7.00;99.90;;;;;;5051759;28;20056;-67
2022/11/07 01:11:48;;;;;;;19.35;10.50;;;7.10;99.90;;;;;;5052160;28;20482;-66
2022/11/07 01:14:52;;;;;;;15.95;10.35;;;7.20;99.90;;;;;;5051388;28;20047;-66
2022/11/07 01:17:56;;;;;;;17.25;11.30;;;7.20;99.90;;;;;;5051631;28;20048;-66
2022/11/07 01:21:07;;;;;;;15.88;10.70;;;7.20;99.90;;;;;;5051365;28;20043;-66
2022/11/07 01:24:12;;;;;;;17.55;10.10;;;7.20;99.90;;;;;;5051365;28;20044;-66
2022/11/07 01:27:16;;;;;;;16.52;10.77;;;7.10;99.90;;;;;;5051436;28;20051;-66
2022/11/07 01:30:20;;;;;;;15.85;10.10;;;7.10;99.90;;;;;;5051181;28;20044;-67
2022/11/07 01:33:24;;;;;;;19.00;12.38;;;7.10;99.90;;;;;;5051057;28;20063;-67
2022/11/07 01:36:28;;;;;;;17.70;10.32;;;7.00;99.90;;;;;;5051122;28;20040;-66
2022/11/07 01:39:32;;;;;;;21.48;10.10;;;7.00;99.90;;;;;;5051238;28;20502;-66
2022/11/07 01:42:36;;;;;;;20.63;12.15;;;6.90;99.90;;;;;;5051467;28;20048;-66
2022/11/07 01:45:40;;;;;;;20.52;12.25;;;6.90;99.90;;;;;;5051402;28;20044;-66
2022/11/07 01:48:49;;;;;;;15.73;10.50;;;6.90;99.90;;;;;;5051401;28;20040;-66
2022/11/07 01:52:12;;;;;;;15.85;10.05;;;6.90;99.90;;;;;;5051119;28;20056;-66
2022/11/07 01:55:32;;;;;;;15.00;10.05;;;6.90;99.90;;;;;;5051021;28;20036;-66
2022/11/07 01:58:36;;;;;;;20.60;9.75;;;6.80;99.90;;;;;;5051337;28;20032;-66
2022/11/07 02:01:41;;;;;;;14.90;9.48;;;6.80;99.90;;;;;;5051005;28;20048;-66
2022/11/07 02:04:46;;;;;;;16.50;9.52;;;6.80;99.90;;;;;;5050956;28;20036;-67
2022/11/07 02:07:49;;;;;;;11.70;8.20;;;6.80;99.90;;;;;;5051172;28;20491;-66
2022/11/07 02:10:54;;;;;;;15.52;9.18;;;6.70;99.90;;;;;;5051177;28;20052;-66
2022/11/07 02:13:57;;;;;;;15.85;9.77;;;6.70;99.90;;;;;;5050603;28;20111;-67
2022/11/07 02:17:01;;;;;;;18.80;10.93;;;6.60;99.90;;;;;;5050906;28;20044;-66
2022/11/07 02:20:06;;;;;;;15.05;9.80;;;6.60;99.90;;;;;;5051007;28;20040;-66
2022/11/07 02:23:39;;;;;;;14.38;9.48;;;6.60;99.90;;;;;;5051067;28;20044;-67
2022/11/07 02:26:44;;;;;;;16.40;9.93;;;6.60;99.90;;;;;;5050919;28;20040;-66
2022/11/07 02:29:53;;;;;;;18.10;9.25;;;6.60;99.90;;;;;;5051594;28;20048;-66
2022/11/07 02:32:57;;;;;;;15.77;10.02;;;6.60;99.90;;;;;;5053468;28;20048;-66
2022/11/07 02:36:01;;;;;;;17.95;8.68;;;6.50;99.90;;;;;;5054929;28;20048;-66
2022/11/07 02:39:06;;;;;;;13.40;8.23;;;6.50;99.90;;;;;;5054235;28;20055;-66
2022/11/07 02:42:10;;;;;;;14.18;8.70;;;6.50;99.90;;;;;;5054569;28;20064;-66
2022/11/07 02:45:28;;;;;;;17.35;8.68;;;6.50;99.90;;;;;;5054196;28;20506;-67
2022/11/07 02:48:40;;;;;;;16.83;10.68;;;6.40;99.90;;;;;;5054604;28;20392;-66
2022/11/07 02:51:43;;;;;;;17.52;10.27;;;6.20;99.90;;;;;;5054262;28;20036;-66
2022/11/07 02:54:47;;;;;;;21.40;11.45;;;6.10;99.90;;;;;;5054517;28;20040;-66
2022/11/07 02:57:52;;;;;;;18.67;10.73;;;6.00;99.90;;;;;;5055037;28;20036;-66
2022/11/07 03:01:05;;;;;;;17.45;10.38;;;5.90;99.90;;;;;;5053833;28;20064;-66
2022/11/07 03:04:09;;;;;;;20.20;10.35;;;5.90;99.90;;;;;;5053800;28;20377;-67
2022/11/07 03:07:13;;;;;;;16.08;10.38;;;5.90;99.90;;;;;;5054297;28;20040;-66
2022/11/07 03:10:17;;;;;;;18.48;10.75;;;5.80;99.90;;;;;;5041329;28;20138;-66
2022/11/07 03:13:21;;;;;;;18.73;9.48;;;5.80;99.90;;;;;;5053652;28;20055;-66
2022/11/07 03:16:25;;;;;;;17.00;10.63;;;5.70;99.90;;;;;;5053827;28;20051;-66
2022/11/07 03:19:29;;;;;;;21.45;12.27;;;5.70;99.90;;;;;;5053561;28;20052;-66
2022/11/07 03:22:34;;;;;;;21.15;13.15;;;5.70;99.90;;;;;;5053751;28;20044;-67
2022/11/07 03:25:37;;;;;;;21.35;11.90;;;5.70;99.90;;;;;;5053347;28;20426;-66
2022/11/07 03:28:41;;;;;;;17.38;10.75;;;5.70;99.90;;;;;;5053861;28;20044;-66
2022/11/07 03:31:45;;;;;;;17.73;11.35;;;5.70;99.90;;;;;;5053749;28;20427;-66
2022/11/07 03:34:49;;;;;;;15.07;9.05;;;5.70;99.90;;;;;;5053365;28;20052;-66
2022/11/07 03:37:54;;;;;;;15.15;8.90;;;5.60;99.90;;;;;;5040834;28;20039;-66
2022/11/07 03:40:58;;;;;;;20.08;8.82;;;5.60;99.90;;;;;;5053150;28;20059;-66
2022/11/07 03:44:02;;;;;;;20.45;13.73;;;5.60;99.90;;;;;;5052017;28;20044;-66
2022/11/07 03:47:06;;;;;;;27.33;16.63;;;5.60;99.90;;;;;;5052241;28;20044;-67
2022/11/07 03:50:16;;;;;;;24.27;15.30;;;5.60;99.90;;;;;;5052988;28;20051;-66
2022/11/07 03:53:20;;;;;;;24.85;13.32;;;5.60;99.90;;;;;;5052911;28;20360;-66
2022/11/07 03:56:24;;;;;;;23.90;10.80;;;5.60;99.90;;;;;;5053058;28;20048;-66
2022/11/07 03:59:28;;;;;;;21.80;12.25;;;5.60;99.90;;;;;;5052740;28;20044;-66
2022/11/07 04:02:32;;;;;;;19.25;11.68;;;5.50;99.90;;;;;;5052941;28;20048;-66
2022/11/07 04:05:36;;;;;;;23.02;12.35;;;5.50;99.90;;;;;;5053051;28;20051;-66
2022/11/07 04:08:40;;;;;;;21.85;13.15;;;5.50;99.90;;;;;;5052784;28;20044;-66
2022/11/07 04:18:30;;;;;;;20.38;12.68;;;5.30;99.90;;;;;;5052661;28;20048;-66
2022/11/07 04:21:33;;;;;;;22.05;13.50;;;5.20;99.90;;;;;;5052532;28;20063;-66
2022/11/07 04:24:37;;;;;;;21.80;15.10;;;5.20;99.90;;;;;;5052333;28;20048;-66
2022/11/07 04:27:41;;;;;;;25.55;16.92;;;5.20;99.90;;;;;;5052324;28;20052;-66
2022/11/07 04:30:45;;;;;;;26.55;16.05;;;5.20;99.90;;;;;;5052345;28;20052;-66
2022/11/07 04:33:49;;;;;;;21.05;13.35;;;5.30;99.90;;;;;;5051839;28;20048;-66
2022/11/07 04:36:53;;;;;;;26.27;14.38;;;5.20;99.90;;;;;;5052025;28;20052;-67
2022/11/07 04:39:57;;;;;;;22.08;15.13;;;5.20;99.90;;;;;;5052053;28;20475;-66
2022/11/07 04:43:07;;;;;;;23.55;13.93;;;5.30;99.90;;;;;;5052299;28;20045;-66
2022/11/07 04:46:12;;;;;;;20.73;12.38;;;5.30;99.90;;;;;;5051789;28;20048;-66
2022/11/07 04:49:15;;;;;;;22.23;15.15;;;5.20;99.90;;;;;;5050922;28;20048;-66
2022/11/07 04:52:19;;;;;;;22.48;13.90;;;5.10;99.90;;;;;;5051460;28;20047;-66
2022/11/07 04:55:25;;;;;;;20.38;12.57;;;5.20;99.90;;;;;;5052018;28;20043;-66
2022/11/07 04:58:30;;;;;;;19.00;13.10;;;5.20;99.90;;;;;;5052149;28;20040;-66
2022/11/07 05:01:34;;;;;;;23.92;13.65;;;5.20;99.90;;;;;;5051593;28;20411;-67
2022/11/07 05:04:39;;;;;;;20.50;12.82;;;5.20;99.90;;;;;;5051243;28;20051;-66
2022/11/07 05:07:44;;;;;;;22.60;14.15;;;5.20;99.90;;;;;;5051892;28;20048;-66
2022/11/07 05:10:47;;;;;;;28.58;14.73;;;5.20;99.90;;;;;;5051801;28;20059;-66
2022/11/07 05:13:51;;;;;;;22.67;14.63;;;5.20;99.90;;;;;;5051883;28;20040;-66
2022/11/07 05:16:56;;;;;;;21.83;13.82;;;5.20;99.90;;;;;;5051516;28;20396;-66
2022/11/07 05:20:00;;;;;;;26.13;16.25;;;5.20;99.90;;;;;;5051528;28;20043;-66
2022/11/07 05:23:11;;;;;;;25.75;15.60;;;5.20;99.90;;;;;;5051684;28;20049;-66
2022/11/07 05:26:15;;;;;;;21.27;15.05;;;5.20;99.90;;;;;;5051236;28;20503;-66
2022/11/07 05:29:18;;;;;;;19.63;12.20;;;5.20;99.90;;;;;;5051317;28;20036;-66
2022/11/07 05:32:23;;;;;;;21.33;11.73;;;5.20;99.90;;;;;;5039063;28;20506;-67
2022/11/07 05:35:26;;;;;;;16.35;10.75;;;5.20;99.90;;;;;;5039085;28;20416;-67
2022/11/07 05:38:30;;;;;;;22.05;12.20;;;5.20;99.90;;;;;;5051382;28;20060;-66
2022/11/07 05:41:35;;;;;;;22.50;11.73;;;5.20;99.90;;;;;;5051172;28;20051;-67
2022/11/07 05:44:39;;;;;;;21.48;12.70;;;5.30;99.90;;;;;;5051406;28;20044;-65
2022/11/07 05:47:42;;;;;;;20.60;12.35;;;5.30;99.90;;;;;;5051553;28;20044;-67
2022/11/07 05:50:47;;;;;;;20.73;11.27;;;5.10;99.90;;;;;;5051503;28;20392;-67
2022/11/07 05:53:51;;;;;;;18.83;11.85;;;5.10;99.90;;;;;;5051297;28;20071;-67
2022/11/07 05:56:56;;;;;;;25.35;11.73;;;5.10;99.90;;;;;;5051767;28;20040;-67
2022/11/07 06:00:00;;;;;;;19.08;12.25;;;5.10;99.90;;;;;;5051125;28;19919;-66
2022/11/07 06:03:04;;;;;;;18.70;11.90;;;5.00;99.90;;;;;;5051211;28;20039;-67
2022/11/07 06:06:08;;;;;;;21.50;13.60;;;4.90;99.90;;;;;;5051452;28;20056;-67
2022/11/07 06:09:12;;;;;;;20.20;13.27;;;4.80;99.90;;;;;;5055159;28;20044;-67
2022/11/07 06:12:16;;;;;;;23.48;13.57;;;4.70;99.90;;;;;;5055134;28;20060;-67
2022/11/07 06:15:20;;;;;;;20.58;12.30;;;4.80;99.90;;;;;;5054587;28;20040;-66
2022/11/07 06:18:24;;;;;;;21.95;12.88;;;5.00;99.90;;;;;;5055203;28;20502;-67
2022/11/07 06:21:28;;;;;;;24.20;12.82;;;5.20;99.90;;;;;;5055009;28;20048;-67
2022/11/07 06:24:32;;;;;;;22.90;12.23;;;5.40;99.90;;;;;;5054446;28;20051;-67
2022/11/07 06:27:36;;;;;;;17.70;10.85;;;5.50;99.90;;;;;;5054914;28;20482;-66
2022/11/07 06:30:41;;;;;;;19.90;11.48;;;5.80;99.90;;;;;;5054848;28;20040;-66
2022/11/07 06:33:48;;;;;;;21.50;10.25;;;5.90;99.90;;;;;;5054736;28;20048;-67
2022/11/07 06:36:53;;;;;;;15.00;10.13;;;6.20;99.90;;;;;;5054451;28;20044;-65
2022/11/07 06:39:57;;;;;;;16.25;9.90;;;6.30;99.90;;;;;;5054200;28;20526;-67
2022/11/07 06:43:13;;;;;;;16.60;9.10;;;6.60;99.90;;;;;;5054110;28;20048;-67
2022/11/07 06:46:18;;;;;;;19.48;10.05;;;6.90;99.90;;;;;;5054098;28;20048;-67
2022/11/07 06:49:22;;;;;;;15.25;8.82;;;7.60;99.90;;;;;;5053812;28;20051;-67
2022/11/07 06:52:27;;;;;;;14.05;8.77;;;9.20;99.90;;;;;;5053892;28;20040;-67
2022/11/07 06:55:34;;;;;;;13.13;8.30;;;9.10;99.90;;;;;;5051842;28;20074;-67
2022/11/07 06:58:38;;;;;;;14.88;8.55;;;9.30;99.90;;;;;;5054507;28;20044;-67
2022/11/07 07:01:42;;;;;;;19.25;8.15;;;10.00;99.90;;;;;;5048649;28;20106;-66
2022/11/07 07:04:47;;;;;;;14.85;8.65;;;10.90;99.90;;;;;;5048213;28;20052;-67
2022/11/07 07:07:53;;;;;;;42.80;11.18;;;10.20;99.90;;;;;;5038463;28;20368;-67
2022/11/07 07:11:03;;;;;;;11.48;7.75;;;8.80;99.90;;;;;;5050066;28;20396;-67
2022/11/07 07:14:07;;;;;;;10.60;6.68;;;10.90;99.90;;;;;;5051036;28;20404;-67
2022/11/07 07:17:11;;;;;;;8.77;6.63;;;13.90;99.90;;;;;;5048591;28;20372;-67
2022/11/07 07:20:15;;;;;;;14.27;6.13;;;16.90;99.90;;;;;;5042506;28;20566;-67
2022/11/07 07:23:19;;;;;;;8.23;6.20;;;18.60;99.90;;;;;;5047917;28;20045;-67
2022/11/07 07:26:24;;;;;;;6.90;5.30;;;19.40;99.90;;;;;;5048620;28;20052;-67
2022/11/07 07:29:27;;;;;;;10.13;5.78;;;20.80;97.30;;;;;;5046418;28;20044;-66
2022/11/07 07:32:34;;;;;;;10.30;5.85;;;21.50;95.20;;;;;;5051191;28;20051;-66
2022/11/07 07:35:38;;;;;;;5.38;4.22;;;21.10;95.10;;;;;;5043255;28;20036;-66
2022/11/07 07:38:42;;;;;;;10.18;6.10;;;21.10;94.80;;;;;;5046120;28;20519;-66
2022/11/07 07:41:48;;;;;;;10.18;7.15;;;21.70;93.80;;;;;;5047527;28;20115;-67
2022/11/07 07:44:57;;;;;;;8.37;6.43;;;21.90;93.40;;;;;;5042793;28;20064;-67
2022/11/07 07:48:01;;;;;;;10.63;7.80;;;23.00;92.60;;;;;;5051843;28;20044;-68
2022/11/07 07:51:05;;;;;;;13.70;8.40;;;22.10;92.30;;;;;;5050774;28;20048;-67
2022/11/07 07:54:10;;;;;;;8.27;6.00;;;21.60;93.50;;;;;;5045741;28;20044;-67
2022/11/07 07:57:14;;;;;;;5.00;3.45;;;21.90;92.00;;;;;;5050658;28;20036;-66
2022/11/07 08:00:18;;;;;;;7.05;3.75;;;23.30;90.90;;;;;;5050641;28;20040;-67
2022/11/07 08:03:23;;;;;;;8.20;3.70;;;22.60;90.80;;;;;;5049533;28;20044;-66
2022/11/07 08:06:27;;;;;;;5.80;3.10;;;21.80;89.50;;;;;;5044444;28;20040;-67
2022/11/07 08:09:35;;;;;;;5.38;3.35;;;22.80;88.80;;;;;;5038542;28;20051;-66
2022/11/07 08:12:43;;;;;;;3.95;2.83;;;22.70;90.40;;;;;;5047033;28;20051;-67
2022/11/07 08:15:48;;;;;;;3.85;2.50;;;23.90;87.80;;;;;;5051021;28;20036;-66
2022/11/07 08:18:52;;;;;;;4.32;2.97;;;25.90;82.80;;;;;;5046958;28;20048;-66
2022/11/07 08:21:56;;;;;;;6.55;4.25;;;26.70;82.20;;;;;;5048483;28;20047;-67
2022/11/07 08:25:00;;;;;;;4.45;3.15;;;27.60;79.10;;;;;;5049779;28;20115;-67
2022/11/07 08:28:06;;;;;;;4.60;2.97;;;24.50;81.80;;;;;;5049572;28;20376;-67
2022/11/07 08:31:11;;;;;;;4.68;2.83;;;24.50;80.50;;;;;;5045100;28;20381;-67
2022/11/07 08:34:17;;;;;;;4.93;2.78;;;24.00;83.40;;;;;;5050174;28;20040;-67
2022/11/07 08:37:22;;;;;;;3.30;2.30;;;24.20;80.30;;;;;;5049650;28;20035;-67
2022/11/07 08:40:26;;;;;;;3.35;2.13;;;25.80;80.30;;;;;;5045663;28;20036;-66
2022/11/07 08:43:30;;;;;;;6.25;2.80;;;27.50;77.70;;;;;;5044019;28;20044;-67
2022/11/07 08:46:35;;;;;;;4.18;2.85;;;27.60;75.80;;;;;;5049960;28;20032;-66
2022/11/07 08:49:39;;;;;;;4.15;2.35;;;28.50;75.90;;;;;;5036357;28;20044;-67
2022/11/07 08:52:43;;;;;;;4.13;2.15;;;29.80;74.50;;;;;;5049749;28;20487;-67
2022/11/07 08:55:47;;;;;;;3.17;2.30;;;29.70;73.70;;;;;;5049408;28;20055;-66
2022/11/07 08:58:51;;;;;;;3.55;2.25;;;28.20;73.40;;;;;;5047891;28;20048;-67
2022/11/07 09:01:55;;;;;;;4.90;2.35;;;27.00;75.50;;;;;;5048971;28;20044;-66
2022/11/07 09:05:00;;;;;;;4.80;2.80;;;26.50;75.70;;;;;;5046846;28;20037;-68
2022/11/07 09:08:05;;;;;;;2.60;2.08;;;27.80;75.70;;;;;;5050097;28;20044;-66
2022/11/07 09:11:10;;;;;;;3.05;2.58;;;24.90;77.60;;;;;;5046898;28;20044;-66
2022/11/07 09:14:14;;;;;;;4.68;2.42;;;26.40;75.90;;;;;;5043696;28;20380;-67
2022/11/07 09:17:18;;;;;;;10.30;2.92;;;25.00;78.30;;;;;;5045630;28;20052;-67
2022/11/07 09:20:22;;;;;;;5.07;3.28;;;26.30;77.70;;;;;;5047637;28;20110;-67
2022/11/07 09:23:26;;;;;;;5.88;2.83;;;24.90;78.70;;;;;;5047629;28;20036;-66
2022/11/07 09:26:30;;;;;;;5.28;2.95;;;23.90;80.70;;;;;;5043370;28;20040;-67
2022/11/07 09:29:35;;;;;;;3.05;2.50;;;26.50;79.50;;;;;;5044781;28;20056;-66
2022/11/07 09:32:38;;;;;;;2.88;2.38;;;29.80;75.40;;;;;;5046671;28;20055;-67
2022/11/07 09:35:42;;;;;;;4.20;2.13;;;31.60;73.50;;;;;;5043774;28;20043;-67
2022/11/07 09:38:46;;;;;;;3.40;2.30;;;32.90;70.50;;;;;;5050141;28;20407;-67
2022/11/07 09:42:05;;;;;;;2.85;1.90;;;32.50;68.20;;;;;;5039899;28;20052;-67
2022/11/07 09:45:13;;;;;;;3.75;2.20;;;31.40;68.70;;;;;;5051901;28;20036;-67
2022/11/07 09:48:24;;;;;;;4.07;2.58;;;31.30;69.60;;;;;;5041850;28;20384;-65
2022/11/07 09:51:35;;;;;;;3.25;2.75;;;27.70;69.80;;;;;;5049093;28;20040;-65
2022/11/07 09:54:45;;;;;;;3.83;3.08;;;27.00;73.30;;;;;;5054989;28;20060;-65
2022/11/07 09:57:54;;;;;;;3.85;2.70;;;26.50;73.60;;;;;;5053674;28;20391;-65
2022/11/07 10:01:04;;;;;;;3.67;2.60;;;26.60;72.70;;;;;;5051917;28;20052;-66
2022/11/07 10:04:15;;;;;;;6.57;2.70;;;25.80;75.00;;;;;;5050378;28;20044;-66
2022/11/07 10:07:25;;;;;;;5.43;3.00;;;28.40;74.00;;;;;;5048985;28;20052;-67
2022/11/07 10:10:50;;;;;;;4.82;2.50;;;29.20;72.70;;;;;;5051834;28;20040;-67
2022/11/07 10:14:22;;;;;;;4.55;3.10;;;31.70;69.60;;;;;;5043284;28;20051;-66
2022/11/07 10:17:47;;;;;;;7.00;3.50;;;30.30;70.30;;;;;;5050449;28;20123;-65
2022/11/07 10:21:15;;;;;;;5.32;3.35;;;32.30;69.80;;;;;;5049993;28;20586;-65
2022/11/07 10:24:57;;;;;;;6.85;3.78;;;28.70;70.30;;;;;;5051111;28;20040;-66
2022/11/07 10:28:07;;;;;;;7.50;3.55;;;25.80;72.70;;;;;;5042490;28;20045;-66
2022/11/07 10:31:13;;;;;;;6.90;4.05;;;28.30;74.00;;;;;;5047376;28;20055;-65
2022/11/07 10:34:43;;;;;;;6.38;4.03;;;31.50;69.80;;;;;;5056815;28;20039;-66
2022/11/07 10:37:53;;;;;;;8.43;4.32;;;30.50;68.70;;;;;;5038035;28;20396;-66
2022/11/07 10:40:57;;;;;;;6.90;4.90;;;27.40;72.00;;;;;;5044965;28;20040;-67
2022/11/07 10:44:03;;;;;;;8.77;5.22;;;25.40;74.20;;;;;;5044142;28;20051;-67
2022/11/07 10:47:22;;;;;;;9.73;4.60;;;22.60;79.90;;;;;;5050845;28;20044;-66
2022/11/07 10:50:27;;;;;;;11.05;4.35;;;22.00;82.00;;;;;;5048040;28;20032;-66
2022/11/07 10:53:43;;;;;;;8.30;4.82;;;20.70;83.80;;;;;;5043037;28;20483;-66
2022/11/07 10:57:02;;;;;;;7.57;4.13;;;19.80;86.70;;;;;;5044795;28;20044;-65
2022/11/07 11:00:24;;;;;;;10.52;4.80;;;19.40;88.10;;;;;;5045135;28;20538;-66
2022/11/07 11:03:32;;;;;;;7.85;4.60;;;20.10;88.20;;;;;;5045930;28;20048;-65
2022/11/07 11:06:36;;;;;;;6.40;3.72;;;21.00;86.50;;;;;;5048267;28;20052;-65
2022/11/07 11:09:52;;;;;;;6.95;3.83;;;22.40;84.90;;;;;;5046715;28;20494;-66
2022/11/07 11:12:56;;;;;;;6.97;3.20;;;24.10;80.60;;;;;;5043328;28;20040;-65
2022/11/07 11:16:13;;;;;;;6.18;3.28;;;23.50;81.10;;;;;;5048137;28;20048;-66
2022/11/07 11:19:32;;;;;;;5.13;3.13;;;23.60;80.80;;;;;;5043384;28;20036;-66
2022/11/07 11:22:41;;;;;;;6.22;3.28;;;23.70;80.80;;;;;;5050161;28;20048;-67
2022/11/07 11:25:48;;;;;;;4.75;3.00;;;25.60;81.10;;;;;;5047304;28;20055;-67
2022/11/07 11:28:58;;;;;;;4.18;2.65;;;29.10;75.80;;;;;;5042013;28;20408;-67
2022/11/07 11:32:04;;;;;;;5.45;3.53;;;29.30;73.80;;;;;;5050065;28;20048;-66
2022/11/07 11:35:22;;;;;;;8.75;3.95;;;26.90;75.70;;;;;;5050281;28;20467;-66
2022/11/07 11:38:38;;;;;;;4.80;2.90;;;25.80;76.10;;;;;;5049701;28;20056;-67
2022/11/07 11:41:59;;;;;;;6.35;2.90;;;26.80;77.00;;;;;;5045516;28;20047;-66
2022/11/07 11:45:11;;;;;;;;;;;26.70;77.30;;;;;;5042258;28;20045;-67
2022/11/07 11:48:29;;;;;;;4.25;2.60;;;28.40;74.80;;;;;;5051214;28;19909;-66
2022/11/07 11:51:53;;;;;;;5.43;2.95;;;29.50;74.20;;;;;;5050196;28;20056;-64
2022/11/07 11:54:59;;;;;;;4.47;2.65;;;30.10;73.50;;;;;;5040688;28;20052;-65
2022/11/07 11:58:23;;;;;;;5.22;2.15;;;31.10;72.30;;;;;;5042170;28;20039;-67
2022/11/07 12:01:55;;;;;;;3.95;2.50;;;30.30;71.40;;;;;;5038245;28;20044;-67
2022/11/07 12:05:20;;;;;;;6.47;4.30;;;29.00;73.40;;;;;;5033822;28;20041;-67
2022/11/07 12:08:50;;;;;;;3.08;1.70;;;30.30;72.60;;;;;;5032929;28;20045;-67
2022/11/07 12:12:15;;;;;;;6.13;2.20;;;29.20;72.60;;;;;;5047325;28;20040;-67
2022/11/07 12:15:44;;;;;;;3.58;2.15;;;30.80;70.70;;;;;;5034352;28;20043;-64
2022/11/07 12:18:54;;;;;;;4.88;2.10;;;29.20;73.60;;;;;;5046388;28;20048;-66
2022/11/07 12:22:16;;;;;;;7.45;4.53;;;30.40;72.60;;;;;;5049645;28;20495;-66
2022/11/07 12:25:42;;;;;;;3.22;1.92;;;29.30;72.00;;;;;;5047080;28;20037;-66
2022/11/07 12:29:08;;;;;;;3.05;2.10;;;30.70;71.80;;;;;;5049422;28;20202;-66
2022/11/07 12:32:36;;;;;;;3.45;1.90;;;29.30;73.70;;;;;;5044996;28;20040;-66
2022/11/07 12:36:22;;;;;;;2.75;1.83;;;30.90;72.60;;;;;;5042869;28;20044;-67
2022/11/07 12:39:26;;;;;;;4.10;2.08;;;32.50;71.90;;;;;;5034126;28;20116;-66
2022/11/07 12:42:48;;;;;;;3.25;1.85;;;34.00;69.90;;;;;;5040540;28;20044;-66
2022/11/07 12:46:06;;;;;;;2.97;1.80;;;35.30;68.70;;;;;;5031803;28;20500;-66
2022/11/07 12:49:47;;;;;;;3.13;1.67;;;35.50;67.50;;;;;;5045571;28;20052;-66
2022/11/07 12:53:18;;;;;;;4.55;1.90;;;35.00;68.20;;;;;;5047831;28;20044;-66
2022/11/07 12:56:35;;;;;;;2.80;1.73;;;35.30;68.10;;;;;;5041630;28;20503;-67
2022/11/07 12:59:42;;;;;;;3.90;1.63;;;35.20;66.50;;;;;;5043634;28;20065;-67
2022/11/07 13:02:52;;;;;;;3.65;1.75;;;34.10;67.50;;;;;;5048870;28;20036;-66
2022/11/07 13:06:29;;;;;;;2.40;1.50;;;34.40;68.50;;;;;;5048657;28;20412;-66
2022/11/07 13:09:49;;;;;;;3.60;2.10;;;31.90;69.00;;;;;;5038649;28;20123;-67
2022/11/07 13:12:59;;;;;;;10.63;1.73;;;32.60;69.60;;;;;;5045523;28;20048;-66
2022/11/07 13:16:25;;;;;;;4.50;1.90;;;32.10;69.10;;;;;;5048296;28;20052;-66
2022/11/07 13:19:32;;;;;;;3.28;1.88;;;31.70;69.90;;;;;;5036621;28;20043;-66
2022/11/07 13:22:39;;;;;;;6.07;2.42;;;32.60;70.00;;;;;;5045477;28;20052;-67
2022/11/07 13:25:43;;;;;;;5.47;2.00;;;33.10;69.40;;;;;;5043091;28;20040;-66
2022/11/07 13:28:58;;;;;;;4.50;1.88;;;33.70;68.70;;;;;;5042171;28;20037;-66
2022/11/07 13:32:11;;;;;;;3.13;1.60;;;33.90;69.00;;;;;;5045602;28;20044;-67
2022/11/07 13:35:21;;;;;;;3.10;1.63;;;34.40;68.90;;;;;;5038735;28;20036;-66
2022/11/07 13:38:27;;;;;;;3.55;1.48;;;34.50;68.30;;;;;;5034302;28;20048;-66
2022/11/07 13:41:32;;;;;;;4.47;1.60;;;34.50;68.70;;;;;;5044993;28;20055;-66
2022/11/07 13:44:38;;;;;;;5.90;1.55;;;34.80;69.00;;;;;;5042796;28;20395;-67
2022/11/07 13:47:42;;;;;;;4.07;1.17;;;35.20;68.70;;;;;;5036402;28;20040;-66
2022/11/07 13:51:04;;;;;;;3.58;1.45;;;35.40;67.80;;;;;;5045245;28;20055;-66
2022/11/07 13:54:08;;;;;;;3.65;1.50;;;34.50;68.90;;;;;;5033534;28;20039;-66
2022/11/07 13:57:17;;;;;;;4.82;1.30;;;34.30;69.10;;;;;;5043680;28;20036;-67
2022/11/07 14:00:21;;;;;;;1.42;0.85;;;34.20;69.90;;;;;;5045455;28;20506;-67
2022/11/07 14:03:28;;;;;;;2.05;0.80;;;34.30;70.00;;;;;;5045048;28;20499;-68
2022/11/07 14:06:35;;;;;;;3.88;1.08;;;33.80;70.70;;;;;;5044140;28;20099;-67
2022/11/07 14:09:41;;;;;;;2.45;0.90;;;33.60;71.10;;;;;;5037646;28;20041;-66
2022/11/07 14:12:46;;;;;;;4.13;1.10;;;33.20;70.10;;;;;;5043020;28;20048;-66
2022/11/07 14:15:57;;;;;;;3.63;1.35;;;32.50;71.60;;;;;;5040365;28;20041;-67
2022/11/07 14:19:05;;;;;;;5.47;1.25;;;31.60;71.30;;;;;;5047230;28;20044;-66
2022/11/07 14:22:24;;;;;;;4.28;1.42;;;31.30;72.70;;;;;;5041022;28;20048;-66
2022/11/07 14:25:34;;;;;;;3.40;0.90;;;30.40;73.50;;;;;;5047545;28;20036;-66
2022/11/07 14:28:39;;;;;;;4.40;1.92;;;29.50;75.30;;;;;;5032612;28;20044;-66
2022/11/07 14:31:44;;;;;;;4.00;1.33;;;28.70;75.80;;;;;;5042285;28;20055;-66
2022/11/07 14:34:50;;;;;;;2.92;1.00;;;27.90;77.30;;;;;;5043629;28;20040;-66
2022/11/07 14:37:56;;;;;;;2.72;1.10;;;27.80;78.10;;;;;;5048231;28;20051;-66
2022/11/07 14:41:01;;;;;;;2.50;1.00;;;27.80;78.10;;;;;;5035612;28;20044;-66
2022/11/07 14:44:11;;;;;;;2.72;1.08;;;27.50;78.60;;;;;;5044397;28;20040;-66
2022/11/07 14:47:30;;;;;;;4.70;1.20;;;27.40;79.50;;;;;;5053961;28;20048;-66
2022/11/07 14:50:35;;;;;;;6.35;1.30;;;26.50;81.00;;;;;;5039182;28;20052;-67
2022/11/07 14:53:45;;;;;;;4.22;1.48;;;26.10;81.80;;;;;;5042561;28;20036;-66
2022/11/07 14:56:54;;;;;;;6.22;1.58;;;25.50;82.60;;;;;;5041761;28;20045;-66
2022/11/07 14:59:58;;;;;;;5.68;1.50;;;24.60;85.10;;;;;;5048479;28;20500;-65
2022/11/07 15:03:03;;;;;;;5.65;1.80;;;23.70;87.30;;;;;;5035854;28;20127;-65
2022/11/07 15:06:21;;;;;;;4.65;1.90;;;23.10;89.10;;;;;;5051118;28;20051;-66
2022/11/07 15:09:32;;;;;;;6.20;2.38;;;22.90;89.20;;;;;;5040683;28;20494;-65
2022/11/07 15:12:48;;;;;;;6.70;3.10;;;22.20;89.60;;;;;;5045157;28;20052;-65
2022/11/07 15:16:03;;;;;;;8.65;4.18;;;21.30;90.50;;;;;;5033964;28;20515;-65
2022/11/07 15:19:13;;;;;;;8.43;3.25;;;20.40;91.30;;;;;;5053848;28;20447;-65
2022/11/07 15:22:27;;;;;;;7.20;3.58;;;20.10;91.80;;;;;;5046173;28;20523;-65
2022/11/07 15:25:39;;;;;;;11.30;4.20;;;20.10;92.10;;;;;;5051533;28;20040;-65
2022/11/07 15:28:51;;;;;;;12.25;4.05;;;20.20;91.90;;;;;;5050575;28;20044;-65
2022/11/07 15:32:02;;;;;;;5.55;3.50;;;19.70;92.60;;;;;;5053535;28;20040;-65
2022/11/07 15:35:18;;;;;;;10.30;3.45;;;19.30;93.40;;;;;;5040296;28;20049;-65
2022/11/07 15:38:25;;;;;;;10.25;3.55;;;18.70;94.70;;;;;;5047280;28;20051;-65
2022/11/07 15:41:30;;;;;;;7.70;4.25;;;18.30;96.10;;;;;;5050953;28;20040;-66
2022/11/07 15:44:33;;;;;;;9.18;4.57;;;17.80;97.20;;;;;;5046402;28;20044;-66
2022/11/07 15:47:38;;;;;;;12.40;5.03;;;17.40;98.50;;;;;;5044042;28;20040;-66
2022/11/07 15:50:44;;;;;;;9.90;5.30;;;17.10;99.60;;;;;;5044372;28;20041;-65
2022/11/07 15:53:48;;;;;;;15.68;6.93;;;16.90;99.90;;;;;;5046988;28;20044;-66
2022/11/07 15:56:59;;;;;;;14.60;5.10;;;16.70;99.90;;;;;;5048536;28;20594;-66
2022/11/07 16:00:04;;;;;;;7.70;4.17;;;16.50;99.90;;;;;;5049782;28;20040;-66
2022/11/07 16:03:18;;;;;;;14.10;3.88;;;16.40;99.90;;;;;;5046602;28;20290;-66
2022/11/07 16:06:28;;;;;;;5.70;3.35;;;16.30;99.90;;;;;;5048810;28;20036;-66
2022/11/07 16:09:32;;;;;;;5.53;2.50;;;16.10;99.90;;;;;;5040501;28;20388;-67
2022/11/07 16:12:36;;;;;;;6.25;1.85;;;16.00;99.90;;;;;;5033722;28;20048;-67
2022/11/07 16:15:44;;;;;;;9.02;2.05;;;15.90;99.90;;;;;;5031647;28;20044;-66
2022/11/07 16:18:51;;;;;;;7.47;1.90;;;15.80;99.90;;;;;;5034815;28;20056;-67
2022/11/07 16:21:55;;;;;;;4.38;1.90;;;15.70;99.90;;;;;;5052221;28;20119;-67